sensor_id;sensor_type;location;lat;lon;timestamp;temperature;humidity
423;DHT22;198;48.752;9.180;2022-12-29T00:01:35;9.50;99.90
423;DHT22;198;48.752;9.180;2022-12-29T00:04:01;9.50;99.90
423;DHT22;198;48.752;9.180;2022-12-29T00:06:27;9.60;99.90
423;DHT22;198;48.752;9.180;2022-12-29T00:08:52;9.60;99.90
423;DHT22;198;48.752;9.180;2022-12-29T00:11:20;9.70;99.90
423;DHT22;198;48.752;9.180;2022-12-29T00:13:46;9.70;99.90
423;DHT22;198;48.752;9.180;2022-12-29T00:16:30;9.70;99.90
423;DHT22;198;48.752;9.180;2022-12-29T00:18:56;9.80;99.90
423;DHT22;198;48.752;9.180;2022-12-29T00:21:23;9.80;99.90
423;DHT22;198;48.752;9.180;2022-12-29T00:24:19;9.80;99.90
423;DHT22;198;48.752;9.180;2022-12-29T00:29:48;9.80;99.90
423;DHT22;198;48.752;9.180;2022-12-29T00:32:33;9.90;99.90
423;DHT22;198;48.752;9.180;2022-12-29T00:35:31;9.90;99.90
423;DHT22;198;48.752;9.180;2022-12-29T00:38:03;9.90;99.90
423;DHT22;198;48.752;9.180;2022-12-29T00:40:47;10.00;99.50
423;DHT22;198;48.752;9.180;2022-12-29T00:43:31;10.00;99.30
423;DHT22;198;48.752;9.180;2022-12-29T00:46:15;10.00;99.10
423;DHT22;198;48.752;9.180;2022-12-29T00:48:40;10.10;98.90
423;DHT22;198;48.752;9.180;2022-12-29T00:51:24;10.10;98.90
423;DHT22;198;48.752;9.180;2022-12-29T00:53:50;10.20;98.90
423;DHT22;198;48.752;9.180;2022-12-29T00:56:16;10.20;98.30
423;DHT22;198;48.752;9.180;2022-12-29T00:58:41;10.30;98.30
423;DHT22;198;48.752;9.180;2022-12-29T01:01:07;10.30;98.20
423;DHT22;198;48.752;9.180;2022-12-29T01:03:35;10.40;98.00
423;DHT22;198;48.752;9.180;2022-12-29T01:06:02;10.40;97.90
423;DHT22;198;48.752;9.180;2022-12-29T01:08:28;10.30;97.90
423;DHT22;198;48.752;9.180;2022-12-29T01:11:11;10.30;97.70
423;DHT22;198;48.752;9.180;2022-12-29T01:13:37;10.40;97.80
423;DHT22;198;48.752;9.180;2022-12-29T01:16:04;10.40;97.70
423;DHT22;198;48.752;9.180;2022-12-29T01:18:31;10.40;97.80
423;DHT22;198;48.752;9.180;2022-12-29T01:21:01;10.40;97.50
423;DHT22;198;48.752;9.180;2022-12-29T01:23:28;10.40;97.70
423;DHT22;198;48.752;9.180;2022-12-29T01:25:54;10.40;97.50
423;DHT22;198;48.752;9.180;2022-12-29T01:28:19;10.50;97.50
423;DHT22;198;48.752;9.180;2022-12-29T01:30:45;10.50;97.40
423;DHT22;198;48.752;9.180;2022-12-29T01:33:10;10.50;97.30
423;DHT22;198;48.752;9.180;2022-12-29T01:35:35;10.50;97.10
423;DHT22;198;48.752;9.180;2022-12-29T01:38:01;10.60;97.10
423;DHT22;198;48.752;9.180;2022-12-29T01:40:27;10.50;97.30
423;DHT22;198;48.752;9.180;2022-12-29T01:42:53;10.50;97.10
423;DHT22;198;48.752;9.180;2022-12-29T01:45:19;10.60;97.10
423;DHT22;198;48.752;9.180;2022-12-29T01:47:49;10.60;97.10
423;DHT22;198;48.752;9.180;2022-12-29T01:50:20;10.60;97.00
423;DHT22;198;48.752;9.180;2022-12-29T01:52:52;10.60;97.20
423;DHT22;198;48.752;9.180;2022-12-29T01:55:19;10.60;97.00
423;DHT22;198;48.752;9.180;2022-12-29T01:57:48;10.60;97.00
423;DHT22;198;48.752;9.180;2022-12-29T02:00:15;10.60;96.90
423;DHT22;198;48.752;9.180;2022-12-29T02:02:47;10.60;96.90
423;DHT22;198;48.752;9.180;2022-12-29T02:05:27;10.60;96.90
423;DHT22;198;48.752;9.180;2022-12-29T02:07:54;10.70;96.70
423;DHT22;198;48.752;9.180;2022-12-29T02:10:21;10.60;96.70
423;DHT22;198;48.752;9.180;2022-12-29T02:12:47;10.70;96.70
423;DHT22;198;48.752;9.180;2022-12-29T02:15:14;10.60;96.90
423;DHT22;198;48.752;9.180;2022-12-29T02:17:50;10.60;96.50
423;DHT22;198;48.752;9.180;2022-12-29T02:20:37;10.60;96.70
423;DHT22;198;48.752;9.180;2022-12-29T02:24:15;10.60;96.70
423;DHT22;198;48.752;9.180;2022-12-29T02:26:38;10.50;96.50
423;DHT22;198;48.752;9.180;2022-12-29T02:38:13;10.40;96.90
423;DHT22;198;48.752;9.180;2022-12-29T02:40:51;10.50;96.70
423;DHT22;198;48.752;9.180;2022-12-29T02:43:30;10.50;96.60
423;DHT22;198;48.752;9.180;2022-12-29T02:46:03;10.50;96.60
423;DHT22;198;48.752;9.180;2022-12-29T02:51:07;10.50;96.50
423;DHT22;198;48.752;9.180;2022-12-29T02:53:34;10.60;96.50
423;DHT22;198;48.752;9.180;2022-12-29T02:56:19;10.60;96.50
423;DHT22;198;48.752;9.180;2022-12-29T02:58:45;10.60;96.50
423;DHT22;198;48.752;9.180;2022-12-29T03:09:41;10.60;96.80
423;DHT22;198;48.752;9.180;2022-12-29T03:15:03;10.60;96.60
423;DHT22;198;48.752;9.180;2022-12-29T03:17:58;10.60;96.40
423;DHT22;198;48.752;9.180;2022-12-29T03:20:36;10.60;96.70
423;DHT22;198;48.752;9.180;2022-12-29T03:23:05;10.60;96.60
423;DHT22;198;48.752;9.180;2022-12-29T03:25:34;10.60;96.80
423;DHT22;198;48.752;9.180;2022-12-29T03:28:09;10.60;96.80
423;DHT22;198;48.752;9.180;2022-12-29T03:30:37;10.60;96.90
423;DHT22;198;48.752;9.180;2022-12-29T03:33:08;10.60;96.90
423;DHT22;198;48.752;9.180;2022-12-29T03:35:37;10.50;97.10
423;DHT22;198;48.752;9.180;2022-12-29T03:38:35;10.50;97.10
423;DHT22;198;48.752;9.180;2022-12-29T03:41:07;10.50;97.10
423;DHT22;198;48.752;9.180;2022-12-29T03:43:33;10.60;97.00
423;DHT22;198;48.752;9.180;2022-12-29T03:45:59;10.50;97.20
423;DHT22;198;48.752;9.180;2022-12-29T03:48:25;10.50;97.40
423;DHT22;198;48.752;9.180;2022-12-29T03:50:50;10.60;97.60
423;DHT22;198;48.752;9.180;2022-12-29T03:53:16;10.60;97.80
423;DHT22;198;48.752;9.180;2022-12-29T03:55:41;10.60;98.30
423;DHT22;198;48.752;9.180;2022-12-29T03:58:07;10.60;98.30
423;DHT22;198;48.752;9.180;2022-12-29T04:00:32;10.70;98.20
423;DHT22;198;48.752;9.180;2022-12-29T04:02:58;10.80;98.00
423;DHT22;198;48.752;9.180;2022-12-29T04:05:23;10.70;97.80
423;DHT22;198;48.752;9.180;2022-12-29T04:07:49;10.70;97.90
423;DHT22;198;48.752;9.180;2022-12-29T04:10:15;10.60;98.10
423;DHT22;198;48.752;9.180;2022-12-29T04:12:40;10.60;98.30
423;DHT22;198;48.752;9.180;2022-12-29T04:15:07;10.60;98.60
423;DHT22;198;48.752;9.180;2022-12-29T04:17:33;10.60;98.90
423;DHT22;198;48.752;9.180;2022-12-29T04:19:59;10.50;99.20
423;DHT22;198;48.752;9.180;2022-12-29T04:22:42;10.50;99.40
423;DHT22;198;48.752;9.180;2022-12-29T04:25:08;10.50;99.80
423;DHT22;198;48.752;9.180;2022-12-29T04:27:34;10.50;99.90
423;DHT22;198;48.752;9.180;2022-12-29T04:29:59;10.40;99.90
423;DHT22;198;48.752;9.180;2022-12-29T04:32:25;10.30;99.90
423;DHT22;198;48.752;9.180;2022-12-29T04:34:50;10.30;99.90
423;DHT22;198;48.752;9.180;2022-12-29T04:37:15;10.30;99.90
423;DHT22;198;48.752;9.180;2022-12-29T04:39:41;10.40;99.90
423;DHT22;198;48.752;9.180;2022-12-29T04:42:07;10.40;99.90
423;DHT22;198;48.752;9.180;2022-12-29T04:44:32;10.30;99.90
423;DHT22;198;48.752;9.180;2022-12-29T04:46:58;10.30;99.90
423;DHT22;198;48.752;9.180;2022-12-29T04:49:23;10.30;99.90
423;DHT22;198;48.752;9.180;2022-12-29T04:51:48;10.30;99.90
423;DHT22;198;48.752;9.180;2022-12-29T04:54:14;10.40;99.90
423;DHT22;198;48.752;9.180;2022-12-29T04:56:39;10.40;99.90
423;DHT22;198;48.752;9.180;2022-12-29T04:59:05;10.40;99.90
423;DHT22;198;48.752;9.180;2022-12-29T05:01:30;10.40;99.90
423;DHT22;198;48.752;9.180;2022-12-29T05:03:56;10.30;99.90
423;DHT22;198;48.752;9.180;2022-12-29T05:06:21;10.30;99.90
423;DHT22;198;48.752;9.180;2022-12-29T05:08:47;10.40;99.90
423;DHT22;198;48.752;9.180;2022-12-29T05:11:12;10.40;99.90
423;DHT22;198;48.752;9.180;2022-12-29T05:13:38;10.50;99.90
423;DHT22;198;48.752;9.180;2022-12-29T05:16:03;10.50;99.90
423;DHT22;198;48.752;9.180;2022-12-29T05:18:29;10.50;99.90
423;DHT22;198;48.752;9.180;2022-12-29T05:20:54;10.50;99.90
423;DHT22;198;48.752;9.180;2022-12-29T05:23:20;10.50;99.90
423;DHT22;198;48.752;9.180;2022-12-29T05:25:46;10.50;99.90
423;DHT22;198;48.752;9.180;2022-12-29T05:28:12;10.50;99.90
423;DHT22;198;48.752;9.180;2022-12-29T05:30:37;10.50;99.90
423;DHT22;198;48.752;9.180;2022-12-29T05:33:03;10.50;99.90
423;DHT22;198;48.752;9.180;2022-12-29T05:35:28;10.50;99.90
423;DHT22;198;48.752;9.180;2022-12-29T05:37:54;10.40;99.90
423;DHT22;198;48.752;9.180;2022-12-29T05:40:19;10.40;99.90
423;DHT22;198;48.752;9.180;2022-12-29T05:42:45;10.40;99.90
423;DHT22;198;48.752;9.180;2022-12-29T05:45:10;10.30;99.90
423;DHT22;198;48.752;9.180;2022-12-29T05:47:36;10.30;99.90
423;DHT22;198;48.752;9.180;2022-12-29T05:50:02;10.40;99.90
423;DHT22;198;48.752;9.180;2022-12-29T05:52:27;10.40;99.90
423;DHT22;198;48.752;9.180;2022-12-29T05:54:53;10.40;99.90
423;DHT22;198;48.752;9.180;2022-12-29T05:57:18;10.40;99.90
423;DHT22;198;48.752;9.180;2022-12-29T05:59:44;10.50;99.90
423;DHT22;198;48.752;9.180;2022-12-29T06:02:09;10.50;99.90
423;DHT22;198;48.752;9.180;2022-12-29T06:04:35;10.60;99.90
423;DHT22;198;48.752;9.180;2022-12-29T06:07:00;10.70;99.90
423;DHT22;198;48.752;9.180;2022-12-29T06:09:26;10.80;99.90
423;DHT22;198;48.752;9.180;2022-12-29T06:11:51;10.80;99.90
423;DHT22;198;48.752;9.180;2022-12-29T06:14:17;10.80;99.90
423;DHT22;198;48.752;9.180;2022-12-29T06:16:42;10.80;99.90
423;DHT22;198;48.752;9.180;2022-12-29T06:19:08;10.80;99.90
423;DHT22;198;48.752;9.180;2022-12-29T06:21:33;10.80;99.90
423;DHT22;198;48.752;9.180;2022-12-29T06:23:59;10.80;99.90
423;DHT22;198;48.752;9.180;2022-12-29T06:26:25;10.80;99.90
423;DHT22;198;48.752;9.180;2022-12-29T06:28:50;10.70;99.90
423;DHT22;198;48.752;9.180;2022-12-29T06:31:16;10.70;99.90
423;DHT22;198;48.752;9.180;2022-12-29T06:33:41;10.80;99.90
423;DHT22;198;48.752;9.180;2022-12-29T06:36:07;10.70;99.90
423;DHT22;198;48.752;9.180;2022-12-29T06:38:32;10.80;99.90
423;DHT22;198;48.752;9.180;2022-12-29T06:40:58;10.80;99.90
423;DHT22;198;48.752;9.180;2022-12-29T06:43:23;10.80;99.90
423;DHT22;198;48.752;9.180;2022-12-29T06:45:49;10.90;99.90
423;DHT22;198;48.752;9.180;2022-12-29T06:48:14;10.90;99.60
423;DHT22;198;48.752;9.180;2022-12-29T06:50:40;10.90;99.40
423;DHT22;198;48.752;9.180;2022-12-29T06:53:06;10.90;99.40
423;DHT22;198;48.752;9.180;2022-12-29T06:55:31;10.90;99.20
423;DHT22;198;48.752;9.180;2022-12-29T06:57:58;10.80;98.90
423;DHT22;198;48.752;9.180;2022-12-29T07:00:24;10.80;99.00
423;DHT22;198;48.752;9.180;2022-12-29T07:02:50;10.80;98.80
423;DHT22;198;48.752;9.180;2022-12-29T07:05:16;10.70;99.00
423;DHT22;198;48.752;9.180;2022-12-29T07:07:41;10.70;99.00
423;DHT22;198;48.752;9.180;2022-12-29T07:10:07;10.70;99.20
423;DHT22;198;48.752;9.180;2022-12-29T07:12:32;10.70;99.10
423;DHT22;198;48.752;9.180;2022-12-29T07:14:58;10.60;99.30
423;DHT22;198;48.752;9.180;2022-12-29T07:17:23;10.60;99.40
423;DHT22;198;48.752;9.180;2022-12-29T07:19:49;10.60;99.30
423;DHT22;198;48.752;9.180;2022-12-29T07:22:15;10.60;99.30
423;DHT22;198;48.752;9.180;2022-12-29T07:24:40;10.50;99.60
423;DHT22;198;48.752;9.180;2022-12-29T07:27:06;10.40;99.80
423;DHT22;198;48.752;9.180;2022-12-29T07:29:31;10.40;99.90
423;DHT22;198;48.752;9.180;2022-12-29T07:31:57;10.50;99.90
423;DHT22;198;48.752;9.180;2022-12-29T07:34:22;10.50;99.90
423;DHT22;198;48.752;9.180;2022-12-29T07:36:48;10.40;99.90
423;DHT22;198;48.752;9.180;2022-12-29T07:39:13;10.50;99.90
423;DHT22;198;48.752;9.180;2022-12-29T07:41:39;10.50;99.90
423;DHT22;198;48.752;9.180;2022-12-29T07:44:04;10.50;99.90
423;DHT22;198;48.752;9.180;2022-12-29T07:46:30;10.50;99.90
423;DHT22;198;48.752;9.180;2022-12-29T07:48:55;10.50;99.90
423;DHT22;198;48.752;9.180;2022-12-29T07:51:20;10.60;99.90
423;DHT22;198;48.752;9.180;2022-12-29T07:53:46;10.60;99.90
423;DHT22;198;48.752;9.180;2022-12-29T07:56:11;10.70;99.90
423;DHT22;198;48.752;9.180;2022-12-29T07:58:37;10.70;99.90
423;DHT22;198;48.752;9.180;2022-12-29T08:01:02;10.80;99.90
423;DHT22;198;48.752;9.180;2022-12-29T08:03:28;10.80;99.90
423;DHT22;198;48.752;9.180;2022-12-29T08:05:54;10.80;99.90
423;DHT22;198;48.752;9.180;2022-12-29T08:08:20;10.80;99.90
423;DHT22;198;48.752;9.180;2022-12-29T08:10:45;10.90;99.90
423;DHT22;198;48.752;9.180;2022-12-29T08:13:11;10.90;99.90
423;DHT22;198;48.752;9.180;2022-12-29T08:15:38;11.00;99.90
423;DHT22;198;48.752;9.180;2022-12-29T08:18:03;10.90;99.90
423;DHT22;198;48.752;9.180;2022-12-29T08:20:29;10.90;99.90
423;DHT22;198;48.752;9.180;2022-12-29T08:22:54;11.00;99.90
423;DHT22;198;48.752;9.180;2022-12-29T08:25:20;11.10;99.90
423;DHT22;198;48.752;9.180;2022-12-29T08:27:46;11.20;99.90
423;DHT22;198;48.752;9.180;2022-12-29T08:30:12;11.20;99.90
423;DHT22;198;48.752;9.180;2022-12-29T08:32:38;11.30;99.90
423;DHT22;198;48.752;9.180;2022-12-29T08:35:03;11.30;99.70
423;DHT22;198;48.752;9.180;2022-12-29T08:37:29;11.40;99.60
423;DHT22;198;48.752;9.180;2022-12-29T08:39:54;11.40;99.70
423;DHT22;198;48.752;9.180;2022-12-29T08:42:20;11.40;99.40
423;DHT22;198;48.752;9.180;2022-12-29T08:44:45;11.40;99.40
423;DHT22;198;48.752;9.180;2022-12-29T08:47:11;11.50;99.40
423;DHT22;198;48.752;9.180;2022-12-29T08:49:37;11.40;99.30
423;DHT22;198;48.752;9.180;2022-12-29T08:52:03;11.40;99.20
423;DHT22;198;48.752;9.180;2022-12-29T08:54:28;11.40;99.20
423;DHT22;198;48.752;9.180;2022-12-29T08:56:54;11.50;99.10
423;DHT22;198;48.752;9.180;2022-12-29T08:59:19;11.40;99.10
423;DHT22;198;48.752;9.180;2022-12-29T09:01:45;11.50;99.40
423;DHT22;198;48.752;9.180;2022-12-29T09:04:10;11.50;99.10
423;DHT22;198;48.752;9.180;2022-12-29T09:06:36;11.40;99.20
423;DHT22;198;48.752;9.180;2022-12-29T09:09:02;11.40;99.10
423;DHT22;198;48.752;9.180;2022-12-29T09:11:27;11.40;99.20
423;DHT22;198;48.752;9.180;2022-12-29T09:13:53;11.50;98.90
423;DHT22;198;48.752;9.180;2022-12-29T09:16:21;11.60;98.80
423;DHT22;198;48.752;9.180;2022-12-29T09:18:48;11.60;98.50
423;DHT22;198;48.752;9.180;2022-12-29T09:21:14;11.80;97.90
423;DHT22;198;48.752;9.180;2022-12-29T09:23:39;12.00;97.40
423;DHT22;198;48.752;9.180;2022-12-29T09:26:06;12.20;96.70
423;DHT22;198;48.752;9.180;2022-12-29T09:28:33;12.30;96.40
423;DHT22;198;48.752;9.180;2022-12-29T09:30:59;12.30;95.90
423;DHT22;198;48.752;9.180;2022-12-29T09:33:25;12.30;95.80
423;DHT22;198;48.752;9.180;2022-12-29T09:35:53;12.30;95.80
423;DHT22;198;48.752;9.180;2022-12-29T09:38:20;12.30;95.80
423;DHT22;198;48.752;9.180;2022-12-29T09:40:49;12.30;96.00
423;DHT22;198;48.752;9.180;2022-12-29T09:48:32;12.30;95.90
423;DHT22;198;48.752;9.180;2022-12-29T09:51:02;12.30;95.60
423;DHT22;198;48.752;9.180;2022-12-29T09:53:33;12.30;95.60
423;DHT22;198;48.752;9.180;2022-12-29T09:56:01;12.40;95.70
423;DHT22;198;48.752;9.180;2022-12-29T09:58:40;12.50;95.40
423;DHT22;198;48.752;9.180;2022-12-29T10:01:16;12.60;95.20
423;DHT22;198;48.752;9.180;2022-12-29T10:03:51;12.70;95.10
423;DHT22;198;48.752;9.180;2022-12-29T10:06:31;12.50;95.30
423;DHT22;198;48.752;9.180;2022-12-29T10:15:28;12.30;96.40
423;DHT22;198;48.752;9.180;2022-12-29T10:23:51;12.40;97.10
423;DHT22;198;48.752;9.180;2022-12-29T10:26:19;12.40;97.00
423;DHT22;198;48.752;9.180;2022-12-29T10:28:53;12.40;96.90
423;DHT22;198;48.752;9.180;2022-12-29T10:31:22;12.50;96.80
423;DHT22;198;48.752;9.180;2022-12-29T10:33:51;12.60;96.50
423;DHT22;198;48.752;9.180;2022-12-29T10:36:38;12.60;96.70
423;DHT22;198;48.752;9.180;2022-12-29T10:39:13;12.60;97.20
423;DHT22;198;48.752;9.180;2022-12-29T10:41:46;12.50;97.40
423;DHT22;198;48.752;9.180;2022-12-29T10:44:16;12.70;97.30
423;DHT22;198;48.752;9.180;2022-12-29T10:46:43;12.90;97.30
423;DHT22;198;48.752;9.180;2022-12-29T10:49:16;13.30;97.00
423;DHT22;198;48.752;9.180;2022-12-29T10:51:44;13.70;95.70
423;DHT22;198;48.752;9.180;2022-12-29T10:54:27;13.80;95.20
423;DHT22;198;48.752;9.180;2022-12-29T10:57:08;14.10;94.30
423;DHT22;198;48.752;9.180;2022-12-29T10:59:36;14.20;93.90
423;DHT22;198;48.752;9.180;2022-12-29T11:02:43;14.00;94.10
423;DHT22;198;48.752;9.180;2022-12-29T11:07:50;13.80;94.00
423;DHT22;198;48.752;9.180;2022-12-29T11:10:30;13.80;94.00
423;DHT22;198;48.752;9.180;2022-12-29T11:13:14;13.70;94.80
423;DHT22;198;48.752;9.180;2022-12-29T11:15:43;13.60;94.70
423;DHT22;198;48.752;9.180;2022-12-29T11:18:30;13.30;94.70
423;DHT22;198;48.752;9.180;2022-12-29T11:20:59;13.30;95.10
423;DHT22;198;48.752;9.180;2022-12-29T11:23:55;13.20;95.40
423;DHT22;198;48.752;9.180;2022-12-29T11:26:23;13.20;95.70
423;DHT22;198;48.752;9.180;2022-12-29T11:29:20;13.20;96.00
423;DHT22;198;48.752;9.180;2022-12-29T11:31:57;13.10;96.00
423;DHT22;198;48.752;9.180;2022-12-29T11:34:31;12.90;96.50
423;DHT22;198;48.752;9.180;2022-12-29T11:37:12;12.90;96.50
423;DHT22;198;48.752;9.180;2022-12-29T11:39:40;12.70;97.80
423;DHT22;198;48.752;9.180;2022-12-29T11:42:14;12.60;99.60
423;DHT22;198;48.752;9.180;2022-12-29T11:44:43;12.40;99.90
423;DHT22;198;48.752;9.180;2022-12-29T11:47:14;12.30;99.90
423;DHT22;198;48.752;9.180;2022-12-29T11:49:50;12.30;99.90
423;DHT22;198;48.752;9.180;2022-12-29T11:52:22;12.30;99.90
423;DHT22;198;48.752;9.180;2022-12-29T11:54:48;12.30;99.90
423;DHT22;198;48.752;9.180;2022-12-29T11:57:16;12.40;99.90
423;DHT22;198;48.752;9.180;2022-12-29T12:02:30;12.40;99.90
423;DHT22;198;48.752;9.180;2022-12-29T12:05:14;12.40;99.90
423;DHT22;198;48.752;9.180;2022-12-29T12:07:44;12.40;99.90
423;DHT22;198;48.752;9.180;2022-12-29T12:10:25;12.20;99.90
423;DHT22;198;48.752;9.180;2022-12-29T12:12:59;12.20;99.90
423;DHT22;198;48.752;9.180;2022-12-29T12:15:36;12.20;99.90
423;DHT22;198;48.752;9.180;2022-12-29T12:18:28;12.20;99.90
423;DHT22;198;48.752;9.180;2022-12-29T12:21:27;12.20;99.90
423;DHT22;198;48.752;9.180;2022-12-29T12:24:05;12.20;99.90
423;DHT22;198;48.752;9.180;2022-12-29T12:29:38;12.20;99.90
423;DHT22;198;48.752;9.180;2022-12-29T12:32:23;12.30;99.90
423;DHT22;198;48.752;9.180;2022-12-29T12:34:50;12.40;99.90
423;DHT22;198;48.752;9.180;2022-12-29T12:37:30;12.50;99.90
423;DHT22;198;48.752;9.180;2022-12-29T12:40:31;12.50;99.90
423;DHT22;198;48.752;9.180;2022-12-29T12:49:26;12.00;99.90
423;DHT22;198;48.752;9.180;2022-12-29T13:00:15;12.10;99.90
423;DHT22;198;48.752;9.180;2022-12-29T13:03:10;12.10;99.90
423;DHT22;198;48.752;9.180;2022-12-29T13:12:11;12.80;99.90
423;DHT22;198;48.752;9.180;2022-12-29T13:23:30;12.60;99.90
423;DHT22;198;48.752;9.180;2022-12-29T13:26:05;12.60;99.90
423;DHT22;198;48.752;9.180;2022-12-29T13:28:56;12.60;99.90
423;DHT22;198;48.752;9.180;2022-12-29T13:37:01;12.40;99.90
423;DHT22;198;48.752;9.180;2022-12-29T13:40:10;12.40;99.90
423;DHT22;198;48.752;9.180;2022-12-29T13:42:25;12.40;99.90
423;DHT22;198;48.752;9.180;2022-12-29T13:45:06;12.40;99.90
423;DHT22;198;48.752;9.180;2022-12-29T13:47:55;12.40;99.90
423;DHT22;198;48.752;9.180;2022-12-29T13:50:26;12.30;99.90
423;DHT22;198;48.752;9.180;2022-12-29T13:58:11;12.10;99.90
423;DHT22;198;48.752;9.180;2022-12-29T14:06:11;12.10;99.90
423;DHT22;198;48.752;9.180;2022-12-29T14:08:37;12.20;99.90
423;DHT22;198;48.752;9.180;2022-12-29T14:11:11;12.30;99.90
423;DHT22;198;48.752;9.180;2022-12-29T14:13:42;12.40;99.90
423;DHT22;198;48.752;9.180;2022-12-29T14:16:31;12.50;99.90
423;DHT22;198;48.752;9.180;2022-12-29T14:19:12;12.40;99.90
423;DHT22;198;48.752;9.180;2022-12-29T14:21:39;12.30;99.90
423;DHT22;198;48.752;9.180;2022-12-29T14:27:00;12.10;99.90
423;DHT22;198;48.752;9.180;2022-12-29T14:31:54;12.00;99.90
423;DHT22;198;48.752;9.180;2022-12-29T14:37:01;11.90;99.90
423;DHT22;198;48.752;9.180;2022-12-29T14:44:50;11.90;99.90
423;DHT22;198;48.752;9.180;2022-12-29T14:47:43;11.90;99.90
423;DHT22;198;48.752;9.180;2022-12-29T14:52:53;11.70;99.90
423;DHT22;198;48.752;9.180;2022-12-29T14:55:41;11.80;99.90
423;DHT22;198;48.752;9.180;2022-12-29T15:00:41;11.80;99.90
423;DHT22;198;48.752;9.180;2022-12-29T15:03:30;11.80;99.90
423;DHT22;198;48.752;9.180;2022-12-29T15:06:08;11.70;99.90
423;DHT22;198;48.752;9.180;2022-12-29T15:08:47;11.60;99.90
423;DHT22;198;48.752;9.180;2022-12-29T15:14:01;11.60;99.90
423;DHT22;198;48.752;9.180;2022-12-29T15:16:32;11.60;99.90
423;DHT22;198;48.752;9.180;2022-12-29T15:18:59;11.60;99.90
423;DHT22;198;48.752;9.180;2022-12-29T15:21:35;11.60;99.90
423;DHT22;198;48.752;9.180;2022-12-29T15:24:03;11.50;99.90
423;DHT22;198;48.752;9.180;2022-12-29T15:26:47;11.50;99.90
423;DHT22;198;48.752;9.180;2022-12-29T15:29:30;11.40;99.90
423;DHT22;198;48.752;9.180;2022-12-29T15:31:58;11.40;99.90
423;DHT22;198;48.752;9.180;2022-12-29T15:34:30;11.30;99.90
423;DHT22;198;48.752;9.180;2022-12-29T15:36:55;11.30;99.90
423;DHT22;198;48.752;9.180;2022-12-29T15:39:28;11.40;99.90
423;DHT22;198;48.752;9.180;2022-12-29T15:41:56;11.40;99.90
423;DHT22;198;48.752;9.180;2022-12-29T15:44:34;11.30;99.90
423;DHT22;198;48.752;9.180;2022-12-29T15:47:11;11.20;99.90
423;DHT22;198;48.752;9.180;2022-12-29T15:49:38;11.20;99.90
423;DHT22;198;48.752;9.180;2022-12-29T15:52:08;11.20;99.90
423;DHT22;198;48.752;9.180;2022-12-29T15:54:34;11.20;99.90
423;DHT22;198;48.752;9.180;2022-12-29T15:57:00;11.20;99.90
423;DHT22;198;48.752;9.180;2022-12-29T15:59:31;11.30;99.90
423;DHT22;198;48.752;9.180;2022-12-29T16:02:00;11.30;99.90
423;DHT22;198;48.752;9.180;2022-12-29T16:04:28;11.30;99.90
423;DHT22;198;48.752;9.180;2022-12-29T16:06:56;11.30;99.90
423;DHT22;198;48.752;9.180;2022-12-29T16:11:59;11.40;99.90
423;DHT22;198;48.752;9.180;2022-12-29T16:14:44;11.30;99.90
423;DHT22;198;48.752;9.180;2022-12-29T16:17:16;11.30;99.90
423;DHT22;198;48.752;9.180;2022-12-29T16:19:50;11.30;99.90
423;DHT22;198;48.752;9.180;2022-12-29T16:22:28;11.20;99.90
423;DHT22;198;48.752;9.180;2022-12-29T16:24:57;11.10;99.90
423;DHT22;198;48.752;9.180;2022-12-29T16:27:39;11.10;99.90
423;DHT22;198;48.752;9.180;2022-12-29T16:30:24;11.10;99.90
423;DHT22;198;48.752;9.180;2022-12-29T16:32:52;10.90;99.90
423;DHT22;198;48.752;9.180;2022-12-29T16:35:21;10.90;99.90
423;DHT22;198;48.752;9.180;2022-12-29T16:37:48;10.70;99.90
423;DHT22;198;48.752;9.180;2022-12-29T16:40:24;10.70;99.90
423;DHT22;198;48.752;9.180;2022-12-29T16:42:58;10.70;99.90
423;DHT22;198;48.752;9.180;2022-12-29T16:48:25;10.60;99.90
423;DHT22;198;48.752;9.180;2022-12-29T16:50:51;10.60;99.90
423;DHT22;198;48.752;9.180;2022-12-29T16:53:21;10.60;99.90
423;DHT22;198;48.752;9.180;2022-12-29T16:55:50;10.60;99.90
423;DHT22;198;48.752;9.180;2022-12-29T16:58:26;10.60;99.90
423;DHT22;198;48.752;9.180;2022-12-29T17:00:56;10.70;99.90
423;DHT22;198;48.752;9.180;2022-12-29T17:03:31;10.70;99.90
423;DHT22;198;48.752;9.180;2022-12-29T17:05:57;10.60;99.90
423;DHT22;198;48.752;9.180;2022-12-29T17:08:22;10.60;99.90
423;DHT22;198;48.752;9.180;2022-12-29T17:10:53;10.60;99.90
423;DHT22;198;48.752;9.180;2022-12-29T17:13:38;10.50;99.90
423;DHT22;198;48.752;9.180;2022-12-29T17:16:06;10.50;99.90
423;DHT22;198;48.752;9.180;2022-12-29T17:18:33;10.50;99.90
423;DHT22;198;48.752;9.180;2022-12-29T17:20:59;10.40;99.90
423;DHT22;198;48.752;9.180;2022-12-29T17:23:24;10.40;99.90
423;DHT22;198;48.752;9.180;2022-12-29T17:25:51;10.40;99.90
423;DHT22;198;48.752;9.180;2022-12-29T17:28:26;10.40;99.90
423;DHT22;198;48.752;9.180;2022-12-29T17:30:53;10.40;99.90
423;DHT22;198;48.752;9.180;2022-12-29T17:33:20;10.30;99.90
423;DHT22;198;48.752;9.180;2022-12-29T17:35:46;10.30;99.90
423;DHT22;198;48.752;9.180;2022-12-29T17:38:17;10.20;99.90
423;DHT22;198;48.752;9.180;2022-12-29T17:40:43;10.20;99.90
423;DHT22;198;48.752;9.180;2022-12-29T17:43:11;10.20;99.90
423;DHT22;198;48.752;9.180;2022-12-29T17:45:38;10.20;99.90
423;DHT22;198;48.752;9.180;2022-12-29T17:48:12;10.30;99.90
423;DHT22;198;48.752;9.180;2022-12-29T17:50:38;10.30;99.90
423;DHT22;198;48.752;9.180;2022-12-29T17:53:06;10.30;99.90
423;DHT22;198;48.752;9.180;2022-12-29T17:55:33;10.40;99.90
423;DHT22;198;48.752;9.180;2022-12-29T17:57:58;10.40;99.90
423;DHT22;198;48.752;9.180;2022-12-29T18:00:26;10.40;99.90
423;DHT22;198;48.752;9.180;2022-12-29T18:02:53;10.50;99.90
423;DHT22;198;48.752;9.180;2022-12-29T18:05:20;10.50;99.90
423;DHT22;198;48.752;9.180;2022-12-29T18:07:46;10.50;99.90
423;DHT22;198;48.752;9.180;2022-12-29T18:10:12;10.60;99.90
423;DHT22;198;48.752;9.180;2022-12-29T18:12:42;10.60;99.90
423;DHT22;198;48.752;9.180;2022-12-29T18:15:20;10.60;99.90
423;DHT22;198;48.752;9.180;2022-12-29T18:17:47;10.60;99.90
423;DHT22;198;48.752;9.180;2022-12-29T18:20:13;10.70;99.90
423;DHT22;198;48.752;9.180;2022-12-29T18:22:38;10.70;99.90
423;DHT22;198;48.752;9.180;2022-12-29T18:25:27;10.60;99.90
423;DHT22;198;48.752;9.180;2022-12-29T18:27:55;10.60;99.90
423;DHT22;198;48.752;9.180;2022-12-29T18:30:20;10.50;99.90
423;DHT22;198;48.752;9.180;2022-12-29T18:32:46;10.50;99.90
423;DHT22;198;48.752;9.180;2022-12-29T18:35:56;10.50;99.90
423;DHT22;198;48.752;9.180;2022-12-29T18:38:22;10.60;99.90
423;DHT22;198;48.752;9.180;2022-12-29T18:40:48;10.50;99.90
423;DHT22;198;48.752;9.180;2022-12-29T18:43:15;10.50;99.90
423;DHT22;198;48.752;9.180;2022-12-29T18:45:41;10.50;99.90
423;DHT22;198;48.752;9.180;2022-12-29T18:48:10;10.40;99.90
423;DHT22;198;48.752;9.180;2022-12-29T18:50:36;10.40;99.90
423;DHT22;198;48.752;9.180;2022-12-29T18:53:01;10.40;99.90
423;DHT22;198;48.752;9.180;2022-12-29T18:55:28;10.40;99.90
423;DHT22;198;48.752;9.180;2022-12-29T18:57:54;10.30;99.90
423;DHT22;198;48.752;9.180;2022-12-29T19:00:21;10.30;99.90